Time;durP1;ratioP1;P1;durP2;ratioP2;P2;SDS_P1;SDS_P2;PMS_P1;PMS_P2;Temp;Humidity;BMP_temperature;BMP_pressure;BME280_temperature;BME280_humidity;BME280_pressure;Samples;Min_cycle;Max_cycle;Signal;HPM_P1;HPM_P2
2021/04/12 00:04:57;;;;;;;11.65;6.58;;;;;;;11.34;57.87;100346.09;4768290;59;1140603;-73
2021/04/12 00:10:31;;;;;;;12.97;5.53;;;;;;;11.33;58.01;100345.73;4768741;61;1140435;-74
2021/04/12 00:16:25;;;;;;;12.80;5.20;;;;;;;11.29;57.98;100356.24;4767947;60;1140389;-71
2021/04/12 00:22:06;;;;;;;9.00;4.90;;;;;;;11.27;58.04;100358.17;4768396;61;1140520;-74
2021/04/12 00:27:53;;;;;;;11.30;4.33;;;;;;;11.24;58.10;100354.45;4752468;61;1138944;-73
2021/04/12 00:33:34;;;;;;;11.50;5.27;;;;;;;11.20;58.10;100363.60;4854368;60;1140888;-74
2021/04/12 00:39:17;;;;;;;11.13;4.30;;;;;;;11.16;58.19;100362.16;4855872;60;1140708;-76
2021/04/12 00:45:21;;;;;;;7.00;4.20;;;;;;;11.13;58.20;100373.03;4856107;60;1140842;-74
2021/04/12 00:51:18;;;;;;;8.98;3.90;;;;;;;11.02;58.22;100376.53;4830597;60;1138771;-73
2021/04/12 00:56:59;;;;;;;17.77;5.03;;;;;;;10.97;58.45;100377.89;4824932;59;1138783;-74
2021/04/12 01:02:43;;;;;;;8.83;4.53;;;;;;;10.88;58.53;100368.41;4858465;58;1140773;-71
2021/04/12 01:08:31;;;;;;;12.57;4.37;;;;;;;10.87;58.74;100375.14;4737798;61;1138550;-74
2021/04/12 01:14:32;;;;;;;7.43;4.60;;;;;;;10.85;58.73;100356.73;4736474;61;1140577;-76
2021/04/12 01:20:23;;;;;;;10.40;4.20;;;;;;;10.78;58.80;100367.48;4737794;61;1138874;-74
2021/04/12 01:26:31;;;;;;;13.45;4.58;;;;;;;10.75;58.85;100379.63;4738459;60;1140750;-72
2021/04/12 01:32:09;;;;;;;5.87;3.17;;;;;;;10.70;59.06;100383.59;4734961;61;1140762;-71
2021/04/12 01:37:53;;;;;;;9.53;4.20;;;;;;;10.66;59.18;100385.66;4737529;61;1138818;-73
2021/04/12 01:43:57;;;;;;;9.58;4.22;;;;;;;10.63;59.26;100379.29;4764951;59;1138802;-73
2021/04/12 01:50:17;;;;;;;8.10;3.10;;;;;;;10.63;59.30;100388.55;4858294;58;1138605;-71
2021/04/12 01:56:07;;;;;;;8.30;3.80;;;;;;;10.60;59.34;100384.81;4858342;59;1138580;-71
2021/04/12 02:01:57;;;;;;;8.50;3.90;;;;;;;10.60;59.35;100390.59;4854531;60;1138365;-72
2021/04/12 02:07:53;;;;;;;7.00;3.80;;;;;;;10.56;59.41;100402.73;4855626;59;1138312;-76
2021/04/12 02:14:08;;;;;;;8.73;3.37;;;;;;;10.51;59.42;100416.81;4825398;60;1138533;-70
2021/04/12 02:19:39;;;;;;;9.08;3.90;;;;;;;10.47;59.46;100426.42;4863860;60;1148286;-75
2021/04/12 02:25:34;;;;;;;5.97;4.20;;;;;;;10.44;59.53;100427.98;4847657;60;1139022;-74
2021/04/12 02:31:34;;;;;;;7.47;3.83;;;;;;;10.36;59.55;100433.04;4855875;59;1138588;-70
2021/04/12 02:37:31;;;;;;;8.27;3.77;;;;;;;10.24;59.89;100437.45;4855537;59;1138527;-74
2021/04/12 02:43:38;;;;;;;9.43;4.20;;;;;;;10.13;59.99;100441.38;4737264;61;1138907;-72
2021/04/12 02:49:33;;;;;;;10.90;4.40;;;;;;;10.08;60.13;100450.97;4737469;61;1138594;-72
2021/04/12 02:55:25;;;;;;;;;;;;;;;10.02;60.20;100454.10;4738281;61;1140757;-72
2021/04/12 03:01:24;;;;;;;6.62;3.83;;;;;;;9.87;60.74;100451.30;4797344;60;976270;-72
2021/04/12 03:07:03;;;;;;;11.05;4.90;;;;;;;9.68;61.21;100464.20;4884877;59;1134449;-73
2021/04/12 03:13:03;;;;;;;10.13;4.40;;;;;;;9.49;61.82;100468.20;4837878;60;1138745;-74
2021/04/12 03:19:20;;;;;;;13.73;5.93;;;;;;;9.33;63.97;100476.03;4838811;60;1138781;-74
2021/04/12 03:24:58;;;;;;;10.23;5.93;;;;;;;9.14;66.26;100493.70;4840673;60;1138957;-72
2021/04/12 03:30:59;;;;;;;12.77;7.30;;;;;;;8.90;67.22;100499.39;4841383;59;1138850;-73
2021/04/12 03:36:42;;;;;;;24.63;8.97;;;;;;;8.69;67.93;100514.48;4840633;59;1138972;-75
2021/04/12 03:42:40;;;;;;;15.20;8.87;;;;;;;8.50;69.84;100515.37;4815349;60;1138803;-71
2021/04/12 03:48:23;;;;;;;15.23;7.60;;;;;;;8.41;69.65;100523.90;4800282;59;1138613;-72
2021/04/12 03:54:21;;;;;;;15.90;8.40;;;;;;;8.26;71.48;100526.23;4960688;58;1138774;-70
2021/04/12 04:00:10;;;;;;;18.45;9.50;;;;;;;8.09;71.26;100531.34;4814780;59;1138537;-72
2021/04/12 04:05:52;;;;;;;16.10;8.65;;;;;;;7.93;72.27;100536.80;4797868;60;1138742;-76
2021/04/12 04:11:30;;;;;;;14.33;7.80;;;;;;;7.80;72.63;100550.37;4904799;59;1138555;-74
2021/04/12 04:17:17;;;;;;;14.10;9.17;;;;;;;7.65;75.85;100553.53;4911118;58;1138614;-70
2021/04/12 04:23:00;;;;;;;21.77;12.50;;;;;;;7.56;75.24;100562.03;4928504;58;1138712;-72
2021/04/12 04:28:50;;;;;;;17.13;8.87;;;;;;;7.53;74.99;100560.91;4905517;59;1140651;-72
2021/04/12 04:35:09;;;;;;;18.30;11.35;;;;;;;7.58;75.18;100569.36;4905337;58;1138529;-74
2021/04/12 04:40:55;;;;;;;17.12;10.54;;;;;;;7.56;75.22;100571.24;4922056;58;1140651;-73
2021/04/12 04:46:39;;;;;;;23.40;13.07;;;;;;;7.61;75.28;100582.33;4742178;59;1140786;-73
2021/04/12 04:52:21;;;;;;;18.10;12.70;;;;;;;7.65;74.83;100597.43;4795016;60;1140840;-73
2021/04/12 04:58:01;;;;;;;18.90;12.50;;;;;;;7.70;74.84;100599.30;4846735;59;1140997;-71
2021/04/12 05:03:49;;;;;;;16.50;11.13;;;;;;;7.78;74.62;100606.25;4834121;59;1140552;-75
2021/04/12 05:09:45;;;;;;;19.70;13.10;;;;;;;7.80;74.73;100620.14;4816953;60;1140634;-75
2021/04/12 05:15:57;;;;;;;17.63;8.30;;;;;;;7.87;74.43;100632.45;4817475;60;1140966;-74
2021/04/12 05:21:32;;;;;;;11.53;8.80;;;;;;;7.81;74.90;100653.89;4610046;61;1138728;-70
2021/04/12 05:27:47;;;;;;;6.03;5.07;;;;;;;7.87;74.65;100657.47;4530083;61;1138615;-75
2021/04/12 05:33:19;;;;;;;4.62;3.98;;;;;;;7.75;74.85;100670.95;4616934;60;1136556;-74
2021/04/12 05:39:00;;;;;;;4.15;3.50;;;;;;;7.60;75.22;100675.39;4617501;61;1136627;-71
2021/04/12 05:44:59;;;;;;;5.67;4.60;;;;;;;7.54;74.84;100694.19;4617516;61;1136641;-71
2021/04/12 05:50:49;;;;;;;5.43;3.63;;;;;;;7.46;74.74;100698.25;4616552;61;1136632;-73
2021/04/12 05:56:36;;;;;;;7.63;5.73;;;;;;;7.50;74.52;100706.30;4782702;60;1136323;-72
2021/04/12 06:02:09;;;;;;;4.70;3.57;;;;;;;7.48;74.18;100710.84;4838093;58;1136355;-71
2021/04/12 06:07:47;;;;;;;6.20;4.67;;;;;;;7.51;74.24;100722.47;4956922;58;1136765;-73
2021/04/12 06:14:02;;;;;;;4.93;3.47;;;;;;;7.51;74.24;100722.47;4792374;59;1136648;-72
2021/04/12 06:19:39;;;;;;;7.83;6.00;;;;;;;7.53;74.11;100720.12;4768601;59;1136687;-72
2021/04/12 06:25:39;;;;;;;7.93;5.73;;;;;;;7.61;73.97;100740.26;4769377;59;1136587;-75
2021/04/12 06:31:35;;;;;;;6.97;4.47;;;;;;;7.71;73.58;100745.78;4768479;59;1136460;-74
2021/04/12 06:37:22;;;;;;;;;;;;;;;7.64;73.78;100763.73;4772846;59;1136755;-72
2021/04/12 06:43:00;;;;;;;4.63;3.83;;;;;;;7.64;73.67;100759.78;4627472;62;973967;-74
2021/04/12 06:49:07;;;;;;;81.27;42.23;;;;;;;7.59;74.08;100776.82;4623025;61;1134428;-74
2021/04/12 06:55:06;;;;;;;30.67;19.70;;;;;;;7.60;73.87;100788.58;4679400;61;1140663;-69
2021/04/12 07:01:17;;;;;;;5.93;4.87;;;;;;;7.62;74.25;100795.06;4679414;60;1140728;-72
2021/04/12 07:07:01;;;;;;;6.33;5.17;;;;;;;7.64;74.56;100807.16;4705591;60;1136711;-72
2021/04/12 07:13:01;;;;;;;13.27;5.80;;;;;;;7.66;74.39;100817.14;4719197;61;1136713;-71
2021/04/12 07:19:18;;;;;;;14.20;7.25;;;;;;;7.66;74.12;100819.77;4855382;59;1138647;-74
2021/04/12 07:25:22;;;;;;;18.00;10.57;;;;;;;7.67;74.24;100829.36;4947541;59;1138692;-75
2021/04/12 07:31:16;;;;;;;12.13;6.83;;;;;;;7.65;74.57;100838.28;4947481;59;1140629;-71
2021/04/12 07:37:45;;;;;;;14.60;7.70;;;;;;;7.54;74.60;100845.52;4947527;59;1139011;-72
2021/04/12 07:44:04;;;;;;;9.50;6.23;;;;;;;7.50;75.19;100856.31;4947301;59;1138598;-75
2021/04/12 07:50:13;;;;;;;9.55;5.35;;;;;;;7.39;75.26;100871.43;4947276;59;1136452;-75
2021/04/12 07:55:57;;;;;;;29.83;14.57;;;;;;;7.40;75.83;100888.45;4947338;59;1136251;-71
2021/04/12 08:01:55;;;;;;;21.50;9.60;;;;;;;7.36;75.48;100893.97;4949290;59;1140389;-71
2021/04/12 08:07:42;;;;;;;13.17;6.30;;;;;;;7.38;75.30;100896.05;4932269;59;1138541;-74
2021/04/12 08:13:34;;;;;;;21.73;9.00;;;;;;;7.33;75.78;100904.20;4916230;59;1138445;-75
2021/04/12 08:19:15;;;;;;;12.73;5.63;;;;;;;7.21;76.83;100916.75;4916471;59;1138822;-72
2021/04/12 08:25:24;;;;;;;24.43;9.37;;;;;;;7.26;76.43;100928.33;4667466;62;1138832;-75
2021/04/12 08:31:25;;;;;;;28.10;9.65;;;;;;;7.24;76.88;100929.73;4665908;62;1138672;-72
2021/04/12 08:37:13;;;;;;;37.73;14.20;;;;;;;7.23;76.44;100928.50;4659861;62;1138677;-72
2021/04/12 08:43:09;;;;;;;17.83;7.27;;;;;;;7.16;76.77;100946.44;4460427;63;1140561;-73
2021/04/12 08:49:02;;;;;;;52.50;17.17;;;;;;;7.11;76.89;100964.25;4444434;63;1138768;-73
2021/04/12 08:54:59;;;;;;;10.00;5.27;;;;;;;7.10;77.13;100966.97;4454024;62;1140779;-71
2021/04/12 09:00:40;;;;;;;8.30;4.93;;;;;;;6.94;76.99;101001.16;4409571;64;1138757;-73
2021/04/12 09:06:47;;;;;;;36.43;10.57;;;;;;;6.94;76.99;101001.16;4545111;63;1136431;-73
2021/04/12 09:12:31;;;;;;;8.07;4.73;;;;;;;6.88;77.54;101001.47;4754028;61;1141081;-73
2021/04/12 09:18:32;;;;;;;6.80;4.33;;;;;;;6.81;78.37;101007.55;4717265;60;1136595;-73
2021/04/12 09:24:34;;;;;;;13.05;7.60;;;;;;;6.70;79.10;101009.45;4823719;59;1136687;-76
2021/04/12 09:30:34;;;;;;;25.72;7.74;;;;;;;6.57;78.61;101023.33;4825541;60;1138654;-77
2021/04/12 09:36:31;;;;;;;32.83;11.38;;;;;;;6.51;79.09;101020.55;4908688;59;1138298;-74
2021/04/12 09:42:34;;;;;;;111.75;38.83;;;;;;;6.47;79.36;101043.97;4917078;59;1140930;-76
2021/04/12 09:48:23;;;;;;;29.15;10.05;;;;;;;6.50;79.12;101054.78;4841152;59;1142723;-75
2021/04/12 09:54:39;;;;;;;46.98;19.00;;;;;;;6.50;78.65;101068.78;4916825;59;1140654;-74
2021/04/12 10:00:48;;;;;;;27.60;18.13;;;;;;;6.44;78.46;101079.59;4917690;59;1140831;-77
2021/04/12 10:06:40;;;;;;;18.93;9.00;;;;;;;6.25;78.95;101091.98;4917301;59;1140605;-73
2021/04/12 10:12:39;;;;;;;20.40;8.83;;;;;;;6.12;78.55;101111.42;4899405;58;1138532;-74
2021/04/12 10:18:32;;;;;;;11.20;7.20;;;;;;;6.18;78.93;101111.13;4863477;59;1138574;-74
2021/04/12 10:24:27;;;;;;;10.17;7.17;;;;;;;6.18;78.09;101116.84;4862755;60;1136650;-72
2021/04/12 10:30:06;;;;;;;11.00;6.80;;;;;;;6.30;78.49;101118.85;4894191;59;1138595;-71
2021/04/12 10:35:43;;;;;;;23.77;16.87;;;;;;;6.36;78.63;101119.87;4836145;59;1138553;-74
2021/04/12 10:41:32;;;;;;;11.07;7.20;;;;;;;6.37;78.14;101128.60;4815153;60;1140560;-73
2021/04/12 10:47:24;;;;;;;2.83;2.62;;;;;;;6.24;78.21;101131.00;4819325;60;1138787;-76
2021/04/12 10:53:22;;;;;;;15.53;6.42;;;;;;;6.13;78.42;101135.91;4819206;59;1136564;-74
2021/04/12 10:59:16;;;;;;;14.30;7.75;;;;;;;6.20;79.00;101151.30;4819735;59;1138764;-72
2021/04/12 11:05:08;;;;;;;17.17;8.77;;;;;;;6.26;78.66;101149.67;4785855;60;1138823;-74
2021/04/12 11:11:18;;;;;;;3.87;1.90;;;;;;;6.24;78.20;101150.70;4863111;59;1138554;-75
2021/04/12 11:17:01;;;;;;;11.72;4.44;;;;;;;6.18;77.61;101170.22;4882735;58;1134311;-77
2021/04/12 11:22:32;;;;;;;4.67;2.03;;;;;;;6.21;78.08;101171.85;4993718;58;1138314;-77
2021/04/12 11:28:04;;;;;;;9.58;3.90;;;;;;;6.23;77.62;101172.17;5000928;58;1136260;-74
2021/04/12 11:33:40;;;;;;;24.77;6.47;;;;;;;6.19;77.28;101173.23;5000292;58;1134618;-74
2021/04/12 11:39:30;;;;;;;21.93;9.83;;;;;;;6.16;78.02;101177.33;5000224;58;1138497;-75
2021/04/12 11:45:03;;;;;;;6.75;4.35;;;;;;;6.13;77.26;101182.72;5000310;58;1138516;-74
2021/04/12 11:50:37;;;;;;;2.37;2.17;;;;;;;6.07;77.38;101183.03;5000880;58;1136415;-74
2021/04/12 11:56:23;;;;;;;4.87;2.40;;;;;;;6.05;76.86;101187.97;5013377;58;1134653;-74
2021/04/12 12:01:57;;;;;;;7.22;3.58;;;;;;;5.93;75.55;101199.45;5022859;58;1136444;-75
2021/04/12 12:07:37;;;;;;;2.00;1.60;;;;;;;5.82;75.56;101208.23;4989915;57;1134062;-75
2021/04/12 12:13:37;;;;;;;5.73;2.30;;;;;;;5.79;75.61;101216.28;4989581;57;1136539;-73
2021/04/12 12:19:21;;;;;;;6.05;3.05;;;;;;;5.81;75.55;101223.59;4949244;58;1134614;-72
2021/04/12 12:25:15;;;;;;;9.58;6.47;;;;;;;5.82;75.34;101226.61;4987824;58;1134623;-75
2021/04/12 12:30:56;;;;;;;38.87;28.30;;;;;;;5.87;75.57;101223.78;4987176;58;1134603;-72
2021/04/12 12:36:49;;;;;;;5.73;3.90;;;;;;;5.83;75.20;101230.09;4984838;58;1138823;-74
2021/04/12 12:42:33;;;;;;;5.07;4.10;;;;;;;5.92;76.00;101229.25;4951153;58;1136350;-76
2021/04/12 12:48:06;;;;;;;9.78;6.42;;;;;;;5.94;75.44;101233.13;4907675;59;1134418;-76
2021/04/12 12:53:35;;;;;;;14.50;7.10;;;;;;;5.85;74.47;101237.44;4907922;59;1134414;-73
2021/04/12 12:59:10;;;;;;;193.95;46.35;;;;;;;5.82;75.65;101241.52;4908246;59;1136402;-73
2021/04/12 13:04:35;;;;;;;5.00;2.67;;;;;;;5.93;75.52;101250.65;4935054;58;1142650;-73
2021/04/12 13:10:21;;;;;;;10.20;7.25;;;;;;;5.91;74.76;101265.61;4946509;58;1134378;-74
2021/04/12 13:15:47;;;;;;;7.20;4.37;;;;;;;5.86;74.77;101276.75;4972805;58;1138977;-73
2021/04/12 13:21:25;;;;;;;7.60;5.00;;;;;;;5.85;74.79;101285.55;4977876;58;1134370;-74
2021/04/12 13:27:03;;;;;;;5.72;3.58;;;;;;;5.86;74.44;101292.50;4989881;58;1142818;-73
2021/04/12 13:32:32;;;;;;;9.57;5.10;;;;;;;5.86;74.17;101295.58;4977248;58;1134111;-74
2021/04/12 13:38:19;;;;;;;8.40;5.13;;;;;;;5.80;73.85;101301.13;4995237;58;1134736;-73
2021/04/12 13:43:48;;;;;;;6.57;3.17;;;;;;;5.76;74.19;101299.55;4973096;57;1134328;-74
2021/04/12 13:49:18;;;;;;;7.53;2.97;;;;;;;5.68;74.56;101315.63;4988906;58;1134354;-72
2021/04/12 13:55:04;;;;;;;4.27;1.93;;;;;;;5.61;74.80;101328.66;4994113;58;1134375;-73
2021/04/12 14:00:36;;;;;;;3.90;2.30;;;;;;;5.41;75.55;101336.07;4997934;58;1134370;-74
2021/04/12 14:06:27;;;;;;;7.60;5.60;;;;;;;5.25;75.46;101335.88;4992859;57;1134552;-73
2021/04/12 14:12:00;;;;;;;11.93;5.00;;;;;;;5.18;75.87;101342.31;4948145;58;1134362;-75
2021/04/12 14:17:41;;;;;;;4.10;2.50;;;;;;;5.07;76.61;101358.92;4921036;58;1136342;-74
2021/04/12 14:23:19;;;;;;;5.97;3.33;;;;;;;5.01;76.98;101363.13;4915207;58;1134458;-76
2021/04/12 14:28:50;;;;;;;8.50;4.87;;;;;;;5.00;77.33;101366.66;4946541;58;1134356;-73
2021/04/12 14:34:32;;;;;;;4.90;3.07;;;;;;;4.96;77.86;101363.77;4959593;58;1134574;-75
2021/04/12 14:40:28;;;;;;;6.23;3.63;;;;;;;4.96;77.86;101363.77;4949648;58;1134759;-71
2021/04/12 14:45:57;;;;;;;8.08;6.70;;;;;;;4.90;77.79;101371.86;4967990;58;1134347;-76
2021/04/12 14:51:28;;;;;;;7.90;4.40;;;;;;;4.86;78.12;101382.95;4919299;58;1136393;-77
2021/04/12 14:57:06;;;;;;;7.27;4.00;;;;;;;4.79;78.71;101402.90;4965971;57;1143783;-72
2021/04/12 15:03:00;;;;;;;3.27;2.27;;;;;;;4.56;79.83;101411.22;4971705;58;1134606;-74
2021/04/12 15:08:37;;;;;;;4.37;3.30;;;;;;;4.40;80.35;101415.33;5002689;58;1134655;-74
2021/04/12 15:14:13;;;;;;;6.20;3.02;;;;;;;4.35;80.74;101415.95;5018725;58;1134195;-75
2021/04/12 15:20:02;;;;;;;7.43;2.67;;;;;;;4.35;80.75;101408.09;5089401;57;1136319;-75
2021/04/12 15:25:50;;;;;;;6.37;3.10;;;;;;;4.41;80.92;101413.11;5094388;57;1134425;-74
2021/04/12 15:31:39;;;;;;;14.27;6.90;;;;;;;4.36;80.64;101414.19;5063597;57;1134364;-76
2021/04/12 15:37:01;;;;;;;6.10;3.02;;;;;;;4.38;80.44;101418.46;5071904;57;1136571;-73
2021/04/12 15:42:28;;;;;;;10.73;4.57;;;;;;;4.40;80.57;101435.43;5058264;57;1134362;-74
2021/04/12 15:47:55;;;;;;;8.40;4.20;;;;;;;4.41;80.50;101454.16;5002531;57;1142008;-74
2021/04/12 15:53:23;;;;;;;9.30;5.07;;;;;;;4.35;81.00;101462.23;5047949;57;1134195;-75
2021/04/12 15:59:08;;;;;;;14.07;7.07;;;;;;;4.27;80.90;101470.84;5029460;57;1134655;-74
2021/04/12 16:04:49;;;;;;;11.70;5.60;;;;;;;4.24;80.81;101463.49;5057619;57;1136380;-75
2021/04/12 16:10:39;;;;;;;19.70;9.03;;;;;;;4.19;81.13;101454.94;5054047;57;1136464;-69
2021/04/12 16:16:09;;;;;;;15.40;7.45;;;;;;;4.13;81.34;101464.77;5054770;57;1136514;-75
2021/04/12 16:22:11;;;;;;;8.60;4.33;;;;;;;4.06;80.89;101477.23;4960304;57;1136469;-72
2021/04/12 16:27:43;;;;;;;18.90;6.07;;;;;;;4.01;81.06;101499.23;4959014;58;1134602;-72
2021/04/12 16:33:16;;;;;;;3.97;2.53;;;;;;;3.95;80.78;101513.41;4971010;58;1136454;-75
2021/04/12 16:38:56;;;;;;;7.60;3.43;;;;;;;3.87;80.77;101517.58;4949743;58;1134341;-75
2021/04/12 16:44:31;;;;;;;8.03;4.53;;;;;;;3.77;80.75;101528.41;4964865;58;1134214;-77
2021/04/12 16:50:27;;;;;;;5.90;5.30;;;;;;;3.74;80.60;101525.44;4962155;58;1134599;-72
2021/04/12 16:55:55;;;;;;;8.98;4.78;;;;;;;3.75;80.87;101521.06;4922603;58;1134785;-75
2021/04/12 17:01:36;;;;;;;10.07;5.83;;;;;;;3.81;80.58;101536.13;4923856;58;1134762;-78
2021/04/12 17:07:04;;;;;;;83.78;40.38;;;;;;;3.84;80.85;101535.99;4897489;58;1136521;-76
2021/04/12 17:12:35;;;;;;;504.00;301.77;;;;;;;3.85;80.69;101536.84;4917743;58;1138633;-83
2021/04/12 17:18:10;;;;;;;541.33;386.87;;;;;;;3.94;80.80;101543.09;4930643;58;1144893;-74
2021/04/12 17:23:46;;;;;;;63.83;26.77;;;;;;;3.94;80.61;101543.09;4936636;58;1143104;-73
2021/04/12 17:29:20;;;;;;;55.27;24.37;;;;;;;3.96;80.71;101550.45;4940923;58;1138637;-78
2021/04/12 17:34:49;;;;;;;17.47;8.80;;;;;;;4.03;80.62;101551.08;4947670;58;1138744;-76
2021/04/12 17:40:26;;;;;;;29.23;13.27;;;;;;;4.02;80.65;101552.84;4977882;58;1136540;-73
2021/04/12 17:45:55;;;;;;;22.58;10.95;;;;;;;4.09;80.71;101559.59;4965908;58;1140653;-73
2021/04/12 17:51:28;;;;;;;45.07;20.07;;;;;;;4.14;80.59;101553.72;4967183;57;1138473;-73
2021/04/12 17:56:56;;;;;;;37.57;15.77;;;;;;;4.18;80.57;101561.02;4985212;58;1138819;-75
2021/04/12 18:02:43;;;;;;;29.17;13.90;;;;;;;4.14;80.42;101573.36;4985546;58;1138507;-72
2021/04/12 18:08:23;;;;;;;24.12;11.20;;;;;;;4.20;80.38;101578.40;4969549;58;1140661;-71
2021/04/12 18:14:16;;;;;;;268.00;165.45;;;;;;;4.16;80.36;101588.56;4830591;59;1138675;-75
2021/04/12 18:19:45;;;;;;;44.90;20.57;;;;;;;4.16;80.65;101596.88;4757061;60;1142710;-70
2021/04/12 18:25:36;;;;;;;39.93;15.67;;;;;;;4.22;80.47;101599.30;4795276;60;1138791;-73
2021/04/12 18:31:21;;;;;;;37.67;15.10;;;;;;;4.28;80.38;101606.09;4803816;60;1140758;-72
2021/04/12 18:37:02;;;;;;;20.17;9.20;;;;;;;4.34;80.51;101614.58;4800433;60;1140895;-74
2021/04/12 18:42:49;;;;;;;19.37;9.87;;;;;;;4.43;80.59;101623.91;4741614;60;1136472;-77
2021/04/12 18:48:57;;;;;;;22.47;11.33;;;;;;;4.43;80.41;101627.34;4740476;60;1136667;-69
2021/04/12 18:54:35;;;;;;;253.40;98.05;;;;;;;4.46;80.52;101630.32;4740628;61;1138699;-77
2021/04/12 19:00:18;;;;;;;69.32;25.48;;;;;;;4.50;80.50;101624.93;4715750;60;1140790;-71
2021/04/12 19:06:06;;;;;;;142.70;54.07;;;;;;;4.51;80.17;101627.09;4741232;61;1138841;-73
2021/04/12 19:11:54;;;;;;;63.23;27.00;;;;;;;4.61;80.40;101624.55;4742744;60;1142610;-74
2021/04/12 19:17:50;;;;;;;20.33;10.23;;;;;;;4.64;80.15;101628.38;4769576;59;1138664;-75
2021/04/12 19:23:43;;;;;;;33.20;14.00;;;;;;;4.55;80.15;101632.64;4876857;59;1138931;-72
2021/04/12 19:29:27;;;;;;;22.58;9.08;;;;;;;4.47;80.20;101635.96;4545774;62;1138659;-70
2021/04/12 19:35:24;;;;;;;18.60;8.53;;;;;;;4.40;80.36;101634.03;4594208;63;1136770;-73
2021/04/12 19:41:25;;;;;;;68.50;33.80;;;;;;;4.40;80.42;101634.48;4603827;63;1138382;-71
2021/04/12 19:47:23;;;;;;;44.70;17.23;;;;;;;4.39;80.57;101627.53;4603659;63;1138605;-73
2021/04/12 19:53:23;;;;;;;46.57;18.30;;;;;;;4.38;80.81;101635.84;4572848;63;1138596;-72
2021/04/12 19:58:56;;;;;;;28.43;12.10;;;;;;;4.37;80.61;101630.20;4742574;59;1140980;-72
2021/04/12 20:04:35;;;;;;;10.13;5.40;;;;;;;4.38;80.73;101631.91;4902499;58;1140883;-76
2021/04/12 20:10:21;;;;;;;13.08;6.40;;;;;;;4.38;80.76;101624.51;4860716;59;1136571;-75
2021/04/12 20:15:55;;;;;;;13.87;5.93;;;;;;;4.34;80.89;101631.60;4883430;59;1136466;-75
2021/04/12 20:21:27;;;;;;;27.50;14.30;;;;;;;4.31;80.82;101633.01;4996083;57;1138816;-75
2021/04/12 20:27:02;;;;;;;45.40;20.87;;;;;;;4.31;80.90;101634.32;4990739;58;1140576;-73
2021/04/12 20:32:32;;;;;;;51.43;19.13;;;;;;;4.31;81.11;101640.02;4931744;58;1138603;-75
2021/04/12 20:38:22;;;;;;;26.53;12.13;;;;;;;4.30;81.10;101642.23;4976424;57;1138762;-73
2021/04/12 20:44:19;;;;;;;13.67;7.53;;;;;;;4.33;81.07;101640.37;4903060;58;1140406;-72
2021/04/12 20:49:54;;;;;;;;;;;;;;;4.36;80.98;101635.48;4834664;60;1138571;-71
2021/04/12 20:55:40;;;;;;;19.00;9.60;;;;;;;4.33;81.00;101638.20;4845650;60;971849;-75
2021/04/12 21:01:18;;;;;;;12.80;7.62;;;;;;;4.28;81.26;101641.45;4831322;60;1134633;-76
2021/04/12 21:06:53;;;;;;;12.47;7.10;;;;;;;4.32;81.07;101641.27;4832787;59;1138797;-73
2021/04/12 21:12:25;;;;;;;;;;;;;;;4.31;80.96;101653.10;4836361;60;1138743;-75
2021/04/12 21:17:56;;;;;;;11.63;7.47;;;;;;;4.31;81.03;101651.34;4845594;60;973816;-71
2021/04/12 21:23:37;;;;;;;14.33;8.47;;;;;;;4.29;81.06;101648.37;4832049;60;1134550;-77
2021/04/12 21:29:36;;;;;;;11.90;6.80;;;;;;;4.28;81.04;101651.92;4906481;58;1136949;-78
2021/04/12 21:35:24;;;;;;;14.15;6.90;;;;;;;4.27;80.83;101647.59;4904836;58;1138634;-76
2021/04/12 21:41:13;;;;;;;25.20;15.50;;;;;;;4.27;81.06;101654.14;4906492;59;1138313;-76
2021/04/12 21:46:48;;;;;;;19.20;10.87;;;;;;;4.32;81.36;101656.13;4906534;58;1138823;-74
2021/04/12 21:52:32;;;;;;;27.30;15.33;;;;;;;4.32;81.37;101665.30;4906667;58;1138487;-72
2021/04/12 21:58:32;;;;;;;17.70;9.13;;;;;;;4.33;81.26;101665.70;4906794;58;1139343;-74
2021/04/12 22:04:08;;;;;;;17.47;8.20;;;;;;;4.36;81.13;101669.53;4906630;58;1138521;-72
2021/04/12 22:09:46;;;;;;;11.03;6.77;;;;;;;4.30;81.05;101667.95;4906809;58;1136427;-75
2021/04/12 22:15:36;;;;;;;16.43;8.37;;;;;;;4.18;81.09;101671.84;4907234;58;1136518;-76
2021/04/12 22:21:06;;;;;;;10.05;5.97;;;;;;;4.11;81.01;101672.97;4906541;58;1145691;-75
2021/04/12 22:27:06;;;;;;;12.80;7.60;;;;;;;4.08;81.18;101683.53;4904634;58;1138714;-74
2021/04/12 22:33:20;;;;;;;18.43;9.07;;;;;;;4.04;81.54;101683.22;4832745;60;1136438;-74
2021/04/12 22:45:01;;;;;;;13.20;7.08;;;;;;;4.03;81.62;101685.88;4822911;60;1136398;-70
2021/04/12 22:50:36;;;;;;;16.20;9.87;;;;;;;4.01;81.85;101681.14;4843810;60;1136454;-75
2021/04/12 22:56:40;;;;;;;18.27;9.33;;;;;;;3.99;81.89;101682.95;4843865;60;1136989;-71
2021/04/12 23:02:01;;;;;;;15.78;9.45;;;;;;;4.01;81.89;101678.08;4843338;60;1136776;-72
2021/04/12 23:07:46;;;;;;;19.43;10.37;;;;;;;4.03;81.77;101671.48;4916893;59;1138746;-70
2021/04/12 23:13:29;;;;;;;18.80;9.93;;;;;;;4.00;81.86;101675.05;4931485;58;1138744;-74
2021/04/12 23:19:05;;;;;;;22.93;12.23;;;;;;;4.00;82.01;101672.89;4906980;58;1136632;-72
2021/04/12 23:24:37;;;;;;;20.20;10.20;;;;;;;4.05;81.92;101666.61;4907074;58;1138347;-75
2021/04/12 23:30:09;;;;;;;15.55;9.28;;;;;;;4.09;81.82;101677.39;4929113;58;1140482;-76
2021/04/12 23:35:36;;;;;;;20.43;12.00;;;;;;;4.05;81.86;101674.92;4917824;58;1136303;-73
2021/04/12 23:41:04;;;;;;;15.88;9.23;;;;;;;4.00;82.05;101676.36;4938451;58;1138917;-73
2021/04/12 23:46:33;;;;;;;13.23;8.63;;;;;;;4.01;81.98;101674.16;4938296;58;1136487;-74
2021/04/12 23:51:59;;;;;;;16.95;9.65;;;;;;;4.03;82.06;101674.96;4938248;58;1138542;-72
2021/04/12 23:57:37;;;;;;;21.77;11.20;;;;;;;4.01;82.11;101674.16;4938329;58;1136505;-74
